Airfield :







YOU CAN JOIN US ON...

 
LOGIN :

Register | Disclaimer

   EN    FR    IT 

 









Legend :    VFR   Marginal VFR   IFR   Intensive IFR   Very Intensive IFR
Visi :
Ceiling :
>= 8 km
>= 3000ft
5 to 8 km
1000 to 3000 ft
1500m to 5 km
500 to 1000 ft
800 to 1500m
200 to 500 ft
< 800m
< 200 ft
Symbols :   Thunderstorms  Fog  Heavy snow  Heavy precipitations  Wind > 20 kt







- Airport Elevation : 75 ft
- IATA code : YXP


CYXP - Pangnirtung

CURRENT METAR :
  • 191600Z 10018G24KT 8SM -RA OVC028 04/01 A2950 RMK SC8 SLP994

EXPIRED METARs :
  • 191500Z 12015G21KT 8SM -RA OVC038 04/01 A2954 RMK SC8 SLP005
  • 191400Z 12018G24KT 12SM -RA SCT035 OVC048 05/M01 A2954 RMK SC3SC5 SLP007

TAF TAF CYXP
Valid from the 19 at 13:00 until the 19 at 22:00 UTC


191239Z 1913/1922 12020G30KT P6SM FEW040 OVC100
TEMPO 1913/1916 P6SM -RA OVC040
FM191600 12020G30KT P6SM SCT020 OVC040
TEMPO 1916/1922 P6SM -RA OVC020 RMK NXT FCST BY 191900Z
No reported NOTAMs for that airfield.



MET'MAP, your aeronautical weather chart ! - Copyright ORBIFLY December 2007 - Disclaimer

ORBIFLY MET'MAP TEAM :

Programming & Development : Alexandra Zaïnal
Concept & Development : Baudouin d'Aumeries
Co-Development & Prog : Marc-Olivier Méhu
Technical & hardware support : Manuel Goepfert

Contact : metmap@orbifly.com




SOURCES & CREDITS :

   NOAA